Time;durP1;ratioP1;P1;durP2;ratioP2;P2;SDS_P1;SDS_P2;PMS_P1;PMS_P2;Temp;Humidity;BMP_temperature;BMP_pressure;BME280_temperature;BME280_humidity;BME280_pressure;Samples;Min_cycle;Max_cycle;Signal;HPM_P1;HPM_P2
2023/10/07 00:00:17;;;;;;;15.10;6.30;;;;;;;;;;5059354;28;20486;-81
2023/10/07 00:02:44;;;;;;;13.83;6.60;;;;;;;;;;5057774;28;20463;-81
2023/10/07 00:05:15;;;;;;;12.50;5.90;;;;;;;;;;5058305;28;20460;-81
2023/10/07 00:07:44;;;;;;;15.40;5.70;;;;;;;;;;5058590;28;20550;-84
2023/10/07 00:10:14;;;;;;;15.33;5.77;;;;;;;;;;5058709;28;20444;-82
2023/10/07 00:12:40;;;;;;;12.27;7.93;;;;;;;;;;5058430;28;20476;-82
2023/10/07 00:15:11;;;;;;;18.80;5.93;;;;;;;;;;5058777;28;20463;-83
2023/10/07 00:17:42;;;;;;;20.47;5.80;;;;;;;;;;5056839;28;20542;-83
2023/10/07 00:20:11;;;;;;;13.03;5.13;;;;;;;;;;5058543;28;20950;-83
2023/10/07 00:22:41;;;;;;;13.73;6.03;;;;;;;;;;5058265;28;20493;-83
2023/10/07 00:25:12;;;;;;;18.50;6.43;;;;;;;;;;5058802;28;20499;-84
2023/10/07 00:27:39;;;;;;;18.07;7.57;;;;;;;;;;5055892;28;20463;-83
2023/10/07 00:30:13;;;;;;;19.93;6.10;;;;;;;;;;5057703;28;20501;-83
2023/10/07 00:32:39;;;;;;;13.00;6.47;;;;;;;;;;5057587;28;20517;-82
2023/10/07 00:35:07;;;;;;;16.57;5.90;;;;;;;;;;5057090;28;20459;-82
2023/10/07 00:37:34;;;;;;;14.13;4.87;;;;;;;;;;5057637;28;20558;-83
2023/10/07 00:40:09;;;;;;;14.53;6.20;;;;;;;;;;5057943;28;20448;-82
2023/10/07 00:42:41;;;;;;;13.67;6.20;;;;;;;;;;5057821;28;20885;-82
2023/10/07 00:45:14;;;;;;;18.53;6.70;;;;;;;;;;5058304;28;20513;-83
2023/10/07 00:47:41;;;;;;;16.77;5.90;;;;;;;;;;5057289;28;20892;-83
2023/10/07 00:50:09;;;;;;;13.17;6.47;;;;;;;;;;5057231;28;20501;-83
2023/10/07 00:52:41;;;;;;;10.47;5.67;;;;;;;;;;5055995;28;20467;-84
2023/10/07 00:55:17;;;;;;;12.67;5.87;;;;;;;;;;5057780;28;20464;-82
2023/10/07 00:57:51;;;;;;;15.23;5.90;;;;;;;;;;5055568;28;20566;-82
2023/10/07 01:00:42;;;;;;;17.47;6.57;;;;;;;;;;5056455;28;20471;-83
2023/10/07 01:03:23;;;;;;;13.20;7.53;;;;;;;;;;5056065;28;20995;-82
2023/10/07 01:06:09;;;;;;;17.00;5.67;;;;;;;;;;5057161;28;20996;-83
2023/10/07 01:08:37;;;;;;;8.13;6.07;;;;;;;;;;5056199;28;20475;-84
2023/10/07 01:11:19;;;;;;;11.27;5.83;;;;;;;;;;5055722;28;20451;-82
2023/10/07 01:13:50;;;;;;;13.43;6.40;;;;;;;;;;5055681;28;20570;-83
2023/10/07 01:16:27;;;;;;;13.80;6.10;;;;;;;;;;5055798;28;20451;-83
2023/10/07 01:18:59;;;;;;;14.03;6.53;;;;;;;;;;5057410;28;20463;-83
2023/10/07 01:21:32;;;;;;;18.20;7.27;;;;;;;;;;5056957;28;20432;-82
2023/10/07 01:24:00;;;;;;;18.77;7.23;;;;;;;;;;5056270;28;20498;-83
2023/10/07 01:26:30;;;;;;;14.73;7.13;;;;;;;;;;5057021;28;20511;-83
2023/10/07 01:29:11;;;;;;;16.43;7.23;;;;;;;;;;5057102;28;20526;-83
2023/10/07 01:31:40;;;;;;;17.20;7.00;;;;;;;;;;5056904;28;20456;-83
2023/10/07 01:34:13;;;;;;;23.83;8.23;;;;;;;;;;5056968;28;20468;-82
2023/10/07 01:36:40;;;;;;;15.17;8.47;;;;;;;;;;5057556;28;20435;-86
2023/10/07 01:39:08;;;;;;;23.83;8.63;;;;;;;;;;5055646;28;20811;-83
2023/10/07 01:41:38;;;;;;;12.43;8.10;;;;;;;;;;5057256;28;20442;-83
2023/10/07 01:44:05;;;;;;;18.00;8.13;;;;;;;;;;5054153;28;20468;-83
2023/10/07 01:46:32;;;;;;;13.83;7.40;;;;;;;;;;5056274;28;20534;-84
2023/10/07 01:49:01;;;;;;;21.73;8.60;;;;;;;;;;5056403;28;20474;-83
2023/10/07 01:51:28;;;;;;;16.70;8.60;;;;;;;;;;5056348;28;20454;-85
2023/10/07 01:53:56;;;;;;;20.03;8.17;;;;;;;;;;5056633;28;20510;-84
2023/10/07 01:56:29;;;;;;;16.23;9.10;;;;;;;;;;5057352;28;20436;-84
2023/10/07 01:58:57;;;;;;;20.67;8.83;;;;;;;;;;5054576;28;20908;-84
2023/10/07 02:01:28;;;;;;;18.30;9.20;;;;;;;;;;5055758;28;20474;-83
2023/10/07 02:03:57;;;;;;;19.27;9.70;;;;;;;;;;5055616;28;20479;-84
2023/10/07 02:06:24;;;;;;;18.57;8.93;;;;;;;;;;5056861;28;20572;-83
2023/10/07 02:08:51;;;;;;;18.27;10.60;;;;;;;;;;5055290;28;20471;-83
2023/10/07 02:11:18;;;;;;;16.20;9.10;;;;;;;;;;5057075;28;20447;-83
2023/10/07 02:13:46;;;;;;;19.03;9.60;;;;;;;;;;5055920;28;20564;-82
2023/10/07 02:16:16;;;;;;;21.90;10.43;;;;;;;;;;5056333;28;20447;-83
2023/10/07 02:18:44;;;;;;;28.37;11.23;;;;;;;;;;5056304;28;20495;-83
2023/10/07 02:21:11;;;;;;;19.03;11.17;;;;;;;;;;5054637;28;20444;-83
2023/10/07 02:23:40;;;;;;;19.17;9.70;;;;;;;;;;5038271;28;20495;-83
2023/10/07 02:26:06;;;;;;;19.53;10.17;;;;;;;;;;5056135;28;20479;-83
2023/10/07 02:28:34;;;;;;;28.33;10.93;;;;;;;;;;5054560;28;20471;-83
2023/10/07 02:31:02;;;;;;;18.20;11.07;;;;;;;;;;5054673;28;20470;-83
2023/10/07 02:33:29;;;;;;;21.83;11.93;;;;;;;;;;5054078;28;20469;-83
2023/10/07 02:35:56;;;;;;;24.93;10.50;;;;;;;;;;5056540;28;20444;-84
2023/10/07 02:38:29;;;;;;;15.63;11.13;;;;;;;;;;5055808;28;20522;-83
2023/10/07 02:40:59;;;;;;;15.63;10.27;;;;;;;;;;5056620;28;20509;-84
2023/10/07 02:43:27;;;;;;;23.90;10.80;;;;;;;;;;5056748;28;20476;-82
2023/10/07 02:45:59;;;;;;;25.10;11.80;;;;;;;;;;5056535;28;20990;-85
2023/10/07 02:48:34;;;;;;;19.43;9.67;;;;;;;;;;5056168;28;20529;-85
2023/10/07 02:51:06;;;;;;;24.90;9.80;;;;;;;;;;5056485;28;20435;-83
2023/10/07 02:53:35;;;;;;;19.40;10.70;;;;;;;;;;5054647;28;20525;-83
2023/10/07 02:56:04;;;;;;;16.70;10.17;;;;;;;;;;5056029;28;20448;-86
2023/10/07 02:58:36;;;;;;;20.43;10.70;;;;;;;;;;5055856;28;20886;-82
2023/10/07 03:01:13;;;;;;;27.00;11.40;;;;;;;;;;5054612;28;20456;-83
2023/10/07 03:03:48;;;;;;;22.23;10.50;;;;;;;;;;5055163;28;20474;-84
2023/10/07 03:06:17;;;;;;;14.13;10.27;;;;;;;;;;5038897;28;20525;-83
2023/10/07 03:08:50;;;;;;;17.03;10.00;;;;;;;;;;5053982;28;20525;-83
2023/10/07 03:11:23;;;;;;;24.03;11.43;;;;;;;;;;5056101;28;20420;-86
2023/10/07 03:13:50;;;;;;;17.50;9.57;;;;;;;;;;5056109;28;20534;-85
2023/10/07 03:16:32;;;;;;;17.00;9.10;;;;;;;;;;5054246;28;20493;-85
2023/10/07 03:19:07;;;;;;;17.27;9.73;;;;;;;;;;5056378;28;20474;-82
2023/10/07 03:21:55;;;;;;;15.40;9.57;;;;;;;;;;5055519;28;20474;-83
2023/10/07 03:24:40;;;;;;;14.30;9.37;;;;;;;;;;5055898;28;20491;-82
2023/10/07 03:27:07;;;;;;;19.27;9.80;;;;;;;;;;5039977;28;20495;-85
2023/10/07 03:29:37;;;;;;;13.43;9.63;;;;;;;;;;5055031;28;20483;-83
2023/10/07 03:32:07;;;;;;;11.30;8.70;;;;;;;;;;5055849;28;20491;-83
2023/10/07 03:34:37;;;;;;;18.57;9.07;;;;;;;;;;5055243;28;20981;-85
2023/10/07 03:37:15;;;;;;;12.47;9.90;;;;;;;;;;5055582;28;20463;-82
2023/10/07 03:39:56;;;;;;;14.13;10.10;;;;;;;;;;5055140;28;20446;-83
2023/10/07 03:42:24;;;;;;;21.53;11.80;;;;;;;;;;5055906;28;20555;-84
2023/10/07 03:44:51;;;;;;;16.73;10.20;;;;;;;;;;5055965;28;20815;-85
2023/10/07 03:47:17;;;;;;;15.77;11.13;;;;;;;;;;5055813;28;20555;-82
2023/10/07 03:49:52;;;;;;;22.97;12.57;;;;;;;;;;5056083;28;20447;-82
2023/10/07 03:52:20;;;;;;;17.53;12.03;;;;;;;;;;5055671;28;20890;-84
2023/10/07 03:54:47;;;;;;;20.67;12.10;;;;;;;;;;5037556;28;20886;-86
2023/10/07 03:57:15;;;;;;;20.10;12.80;;;;;;;;;;5054956;28;20464;-84
2023/10/07 03:59:42;;;;;;;13.40;11.57;;;;;;;;;;5038563;28;20414;-82
2023/10/07 04:04:58;;;;;;;22.43;11.70;;;;;;;;;;5053342;28;20539;-85
2023/10/07 04:07:25;;;;;;;26.10;12.70;;;;;;;;;;5054302;28;20871;-83
2023/10/07 04:09:52;;;;;;;20.33;12.27;;;;;;;;;;5056061;28;20437;-85
2023/10/07 04:12:18;;;;;;;19.77;12.97;;;;;;;;;;5054888;28;20517;-81
2023/10/07 04:14:44;;;;;;;24.23;13.43;;;;;;;;;;5055204;28;20460;-84
2023/10/07 04:17:12;;;;;;;19.00;11.30;;;;;;;;;;5054258;28;20537;-83
2023/10/07 04:19:40;;;;;;;20.67;12.80;;;;;;;;;;5055127;28;20444;-83
2023/10/07 04:22:09;;;;;;;23.23;12.87;;;;;;;;;;5057296;28;20471;-83
2023/10/07 04:24:38;;;;;;;16.80;11.97;;;;;;;;;;5058102;28;20463;-83
2023/10/07 04:27:05;;;;;;;27.43;14.00;;;;;;;;;;5056058;28;20462;-84
2023/10/07 04:29:32;;;;;;;24.83;13.33;;;;;;;;;;5055873;28;20534;-83
2023/10/07 04:32:02;;;;;;;24.37;13.53;;;;;;;;;;5057393;28;20448;-84
2023/10/07 04:34:35;;;;;;;28.67;13.03;;;;;;;;;;5057714;28;20463;-83
2023/10/07 04:37:14;;;;;;;22.03;12.20;;;;;;;;;;5057323;28;20452;-82
2023/10/07 04:42:22;;;;;;;20.00;12.50;;;;;;;;;;5056745;28;20456;-83
2023/10/07 04:45:17;;;;;;;25.97;13.17;;;;;;;;;;5059905;28;20467;-83
2023/10/07 04:47:46;;;;;;;27.37;12.60;;;;;;;;;;5046035;28;20834;-84
2023/10/07 04:50:16;;;;;;;32.53;12.53;;;;;;;;;;5060411;28;20444;-84
2023/10/07 04:52:50;;;;;;;24.07;12.80;;;;;;;;;;5060220;28;20487;-86
2023/10/07 04:55:19;;;;;;;23.40;12.40;;;;;;;;;;5060719;28;20463;-85
2023/10/07 04:57:56;;;;;;;24.30;12.70;;;;;;;;;;5058990;28;20462;-83
2023/10/07 05:00:34;;;;;;;28.20;12.07;;;;;;;;;;5060499;28;20473;-84
2023/10/07 05:03:01;;;;;;;20.10;11.97;;;;;;;;;;5057528;28;20498;-83
2023/10/07 05:05:30;;;;;;;28.43;12.20;;;;;;;;;;5058634;28;20452;-83
2023/10/07 05:07:58;;;;;;;23.53;13.97;;;;;;;;;;5060296;28;20475;-83
2023/10/07 05:10:29;;;;;;;29.30;11.37;;;;;;;;;;5059157;28;20860;-84
2023/10/07 05:12:55;;;;;;;17.43;11.00;;;;;;;;;;5059158;28;20467;-83
2023/10/07 05:15:21;;;;;;;20.83;10.83;;;;;;;;;;5059491;28;20462;-85
2023/10/07 05:17:51;;;;;;;22.20;12.87;;;;;;;;;;5041693;28;20459;-83
2023/10/07 05:20:27;;;;;;;21.33;11.10;;;;;;;;;;5059570;28;20657;-83
2023/10/07 05:22:53;;;;;;;28.40;10.87;;;;;;;;;;5058271;28;20478;-83
2023/10/07 05:25:21;;;;;;;17.10;10.97;;;;;;;;;;5058107;28;20981;-83
2023/10/07 05:27:50;;;;;;;27.30;12.00;;;;;;;;;;5059007;28;20491;-83
2023/10/07 05:30:18;;;;;;;23.17;10.60;;;;;;;;;;5058777;28;20861;-84
2023/10/07 05:32:45;;;;;;;14.10;9.83;;;;;;;;;;5057776;28;20498;-84
2023/10/07 05:35:18;;;;;;;21.27;11.00;;;;;;;;;;5057526;28;20937;-82
2023/10/07 05:37:45;;;;;;;24.43;12.70;;;;;;;;;;5058752;28;20470;-82
2023/10/07 05:40:13;;;;;;;30.53;12.77;;;;;;;;;;5058312;28;20455;-82
2023/10/07 05:42:40;;;;;;;20.30;11.43;;;;;;;;;;5057866;28;20472;-85
2023/10/07 05:45:09;;;;;;;23.27;12.23;;;;;;;;;;5058244;28;20456;-85
2023/10/07 05:47:36;;;;;;;24.90;12.07;;;;;;;;;;5057237;28;20559;-83
2023/10/07 05:50:03;;;;;;;22.70;11.43;;;;;;;;;;5058673;28;20440;-84
2023/10/07 05:52:31;;;;;;;19.77;12.57;;;;;;;;;;5057837;28;20810;-85
2023/10/07 05:54:57;;;;;;;21.13;12.17;;;;;;;;;;5056424;28;20494;-85
2023/10/07 05:57:24;;;;;;;27.97;11.90;;;;;;;;;;5057768;28;20464;-84
2023/10/07 05:59:50;;;;;;;28.30;12.20;;;;;;;;;;5058832;28;20436;-84
2023/10/07 06:02:18;;;;;;;21.73;11.37;;;;;;;;;;5057179;28;20472;-85
2023/10/07 06:04:44;;;;;;;26.93;11.83;;;;;;;;;;5058047;28;20463;-84
2023/10/07 06:07:12;;;;;;;20.77;11.47;;;;;;;;;;5055429;28;20893;-85
2023/10/07 06:09:41;;;;;;;17.80;12.10;;;;;;;;;;5057202;28;20440;-85
2023/10/07 06:12:09;;;;;;;25.80;13.23;;;;;;;;;;5056327;28;20965;-86
2023/10/07 06:14:35;;;;;;;34.23;13.77;;;;;;;;;;5059238;28;20456;-85
2023/10/07 06:17:06;;;;;;;26.07;13.57;;;;;;;;;;5058888;28;20471;-85
2023/10/07 06:19:34;;;;;;;21.50;13.50;;;;;;;;;;5059242;28;20420;-85
2023/10/07 06:22:10;;;;;;;18.90;13.40;;;;;;;;;;5058126;28;20471;-86
2023/10/07 06:24:37;;;;;;;24.07;12.40;;;;;;;;;;5056497;28;20463;-86
2023/10/07 06:27:07;;;;;;;27.70;13.33;;;;;;;;;;5053913;28;20868;-85
2023/10/07 06:29:33;;;;;;;25.37;12.30;;;;;;;;;;5057362;28;20443;-84
2023/10/07 06:32:13;;;;;;;27.77;12.83;;;;;;;;;;5056398;28;20479;-85
2023/10/07 06:34:41;;;;;;;27.27;14.43;;;;;;;;;;5055655;28;20467;-85
2023/10/07 06:37:08;;;;;;;25.30;13.33;;;;;;;;;;5056344;28;20940;-85
2023/10/07 06:39:34;;;;;;;26.00;13.30;;;;;;;;;;5056269;28;20452;-85
2023/10/07 06:42:01;;;;;;;23.20;13.27;;;;;;;;;;5056590;28;20538;-85
2023/10/07 06:44:27;;;;;;;24.37;14.27;;;;;;;;;;5055530;28;20460;-85
2023/10/07 06:46:56;;;;;;;21.73;12.27;;;;;;;;;;5038421;28;20878;-85
2023/10/07 06:49:23;;;;;;;28.73;12.80;;;;;;;;;;5055736;28;20545;-85
2023/10/07 06:51:53;;;;;;;23.00;12.83;;;;;;;;;;5056029;28;20444;-84
2023/10/07 06:54:19;;;;;;;22.27;12.07;;;;;;;;;;5056172;28;20475;-85
2023/10/07 06:56:49;;;;;;;19.80;12.50;;;;;;;;;;5056082;28;20439;-85
2023/10/07 06:59:16;;;;;;;18.50;13.63;;;;;;;;;;5057057;28;20965;-85
2023/10/07 07:01:53;;;;;;;23.97;13.50;;;;;;;;;;5055644;28;20443;-86
2023/10/07 07:04:22;;;;;;;25.47;12.43;;;;;;;;;;5057087;28;20463;-86
2023/10/07 07:06:58;;;;;;;19.03;12.83;;;;;;;;;;5055547;28;20529;-84
2023/10/07 07:12:16;;;;;;;29.07;13.70;;;;;;;;;;5056807;28;20494;-85
2023/10/07 07:14:46;;;;;;;26.53;14.70;;;;;;;;;;5057519;28;20460;-85
2023/10/07 07:22:37;;;;;;;21.80;14.23;;;;;;;;;;5056257;28;20459;-84
2023/10/07 07:25:08;;;;;;;23.53;14.20;;;;;;;;;;5056708;28;20832;-85
2023/10/07 07:27:35;;;;;;;27.40;14.50;;;;;;;;;;5056408;28;20899;-85
2023/10/07 07:30:02;;;;;;;25.50;14.17;;;;;;;;;;5056571;28;20450;-87
2023/10/07 07:32:32;;;;;;;26.50;16.30;;;;;;;;;;5054496;28;20474;-83
2023/10/07 07:35:02;;;;;;;16.50;13.50;;;;;;;;;;5056806;28;20454;-84
2023/10/07 07:37:31;;;;;;;25.63;15.57;;;;;;;;;;5055087;28;20471;-84
2023/10/07 07:39:59;;;;;;;21.97;14.10;;;;;;;;;;5055829;28;20477;-84
2023/10/07 07:42:27;;;;;;;29.93;15.37;;;;;;;;;;5056689;28;20517;-83
2023/10/07 07:44:57;;;;;;;38.00;15.47;;;;;;;;;;5055040;28;20468;-84
2023/10/07 07:47:24;;;;;;;30.83;14.83;;;;;;;;;;5056368;28;20510;-85
2023/10/07 07:49:51;;;;;;;29.33;14.10;;;;;;;;;;5056404;28;20448;-85
2023/10/07 07:52:19;;;;;;;19.60;14.33;;;;;;;;;;5055879;28;20474;-85
2023/10/07 07:54:46;;;;;;;30.33;15.70;;;;;;;;;;5057101;28;20462;-83
2023/10/07 07:57:16;;;;;;;23.43;15.83;;;;;;;;;;5055706;28;20464;-85
2023/10/07 07:59:44;;;;;;;24.13;14.83;;;;;;;;;;5057003;28;20423;-84
2023/10/07 08:02:14;;;;;;;28.03;15.10;;;;;;;;;;5055999;28;20517;-86
2023/10/07 08:04:46;;;;;;;20.70;14.70;;;;;;;;;;5056888;28;20841;-83
2023/10/07 08:07:18;;;;;;;21.17;15.03;;;;;;;;;;5055861;28;20494;-86
2023/10/07 08:09:46;;;;;;;20.70;13.83;;;;;;;;;;5056700;28;20985;-85
2023/10/07 08:12:18;;;;;;;26.17;14.70;;;;;;;;;;5056690;28;20470;-82
2023/10/07 08:14:47;;;;;;;24.13;15.07;;;;;;;;;;5056626;28;20463;-83
2023/10/07 08:17:19;;;;;;;26.83;16.27;;;;;;;;;;5056838;28;20463;-83
2023/10/07 08:19:49;;;;;;;31.40;15.70;;;;;;;;;;5059683;28;20427;-82
2023/10/07 08:22:18;;;;;;;18.53;14.40;;;;;;;;;;5059702;28;20525;-83
2023/10/07 08:24:45;;;;;;;25.97;14.77;;;;;;;;;;5060069;28;20466;-83
2023/10/07 08:27:43;;;;;;;24.90;13.73;;;;;;;;;;5060143;28;20468;-84
2023/10/07 08:30:06;;;;;;;24.80;14.37;;;;;;;;;;5058454;28;20460;-84
2023/10/07 08:32:37;;;;;;;24.93;13.83;;;;;;;;;;5058297;28;20470;-84
2023/10/07 08:35:14;;;;;;;19.13;14.33;;;;;;;;;;5059329;28;20964;-83
2023/10/07 08:37:45;;;;;;;17.60;13.23;;;;;;;;;;5059368;28;20478;-83
2023/10/07 08:40:15;;;;;;;19.60;13.60;;;;;;;;;;5059654;28;20511;-84
2023/10/07 08:42:44;;;;;;;24.77;14.83;;;;;;;;;;5054195;28;20468;-82
2023/10/07 08:45:23;;;;;;;27.30;14.30;;;;;;;;;;5059116;28;20509;-83
2023/10/07 08:47:50;;;;;;;27.63;14.70;;;;;;;;;;5058189;28;20879;-82
2023/10/07 08:50:19;;;;;;;26.23;14.10;;;;;;;;;;5058367;28;20431;-81
2023/10/07 08:52:45;;;;;;;16.80;13.30;;;;;;;;;;5055996;28;20480;-83
2023/10/07 08:55:11;;;;;;;32.67;15.60;;;;;;;;;;5057846;28;20460;-84
2023/10/07 08:57:38;;;;;;;26.40;15.87;;;;;;;;;;5057225;28;21035;-83
2023/10/07 09:00:11;;;;;;;25.60;15.53;;;;;;;;;;5057442;28;20447;-84
2023/10/07 09:02:41;;;;;;;18.20;15.57;;;;;;;;;;5057128;28;21076;-84
2023/10/07 09:05:16;;;;;;;22.13;14.20;;;;;;;;;;5056567;28;20459;-79
2023/10/07 09:07:49;;;;;;;24.27;16.20;;;;;;;;;;5056097;28;20485;-82
2023/10/07 09:10:17;;;;;;;25.33;15.07;;;;;;;;;;5056993;28;20448;-81
2023/10/07 09:12:46;;;;;;;24.63;13.70;;;;;;;;;;5057268;28;20829;-81
2023/10/07 09:15:19;;;;;;;22.20;14.60;;;;;;;;;;5058815;28;20990;-81
2023/10/07 09:17:47;;;;;;;15.77;13.60;;;;;;;;;;5059263;28;20846;-82
2023/10/07 09:20:17;;;;;;;19.40;13.77;;;;;;;;;;5058577;28;20542;-80
2023/10/07 09:22:46;;;;;;;20.00;14.23;;;;;;;;;;5056124;28;20483;-80
2023/10/07 09:25:17;;;;;;;23.97;15.70;;;;;;;;;;5057361;28;20518;-81
2023/10/07 09:27:44;;;;;;;18.07;13.03;;;;;;;;;;5057633;28;20472;-81
2023/10/07 09:30:34;;;;;;;22.83;13.57;;;;;;;;;;5055629;28;20482;-80
2023/10/07 09:33:06;;;;;;;24.07;12.27;;;;;;;;;;5055896;28;20997;-80
2023/10/07 09:35:32;;;;;;;16.60;11.90;;;;;;;;;;5057044;28;20432;-80
2023/10/07 09:38:00;;;;;;;18.50;12.40;;;;;;;;;;5055607;28;20460;-81
2023/10/07 09:43:19;;;;;;;23.97;12.27;;;;;;;;;;5055695;28;20809;-79
2023/10/07 09:45:46;;;;;;;19.67;11.67;;;;;;;;;;5056162;28;20427;-80
2023/10/07 09:48:15;;;;;;;13.10;10.17;;;;;;;;;;5055602;28;20471;-80
2023/10/07 09:50:44;;;;;;;19.33;11.30;;;;;;;;;;5054922;28;20447;-81
2023/10/07 09:53:27;;;;;;;19.53;12.20;;;;;;;;;;5055556;28;20555;-82
2023/10/07 09:56:04;;;;;;;18.70;11.70;;;;;;;;;;5056682;28;20456;-79
2023/10/07 09:58:41;;;;;;;15.90;10.53;;;;;;;;;;5054186;28;20471;-82
2023/10/07 10:01:29;;;;;;;14.47;11.97;;;;;;;;;;5055931;28;20435;-80
2023/10/07 10:04:05;;;;;;;16.43;11.80;;;;;;;;;;5054942;28;20486;-79
2023/10/07 10:06:39;;;;;;;16.30;9.37;;;;;;;;;;5055956;28;20447;-81
2023/10/07 10:09:10;;;;;;;23.77;11.10;;;;;;;;;;5055568;28;21014;-79
2023/10/07 10:11:46;;;;;;;18.87;9.87;;;;;;;;;;5056349;28;20415;-79
2023/10/07 10:14:19;;;;;;;16.70;9.80;;;;;;;;;;5055358;28;20471;-80
2023/10/07 10:16:47;;;;;;;13.10;8.50;;;;;;;;;;5055336;28;20478;-80
2023/10/07 10:19:25;;;;;;;16.47;8.63;;;;;;;;;;5055635;28;20522;-80
2023/10/07 10:21:52;;;;;;;18.20;8.37;;;;;;;;;;5054873;28;20789;-79
2023/10/07 10:24:25;;;;;;;21.80;8.20;;;;;;;;;;5055107;28;20974;-80
2023/10/07 10:26:51;;;;;;;15.77;7.90;;;;;;;;;;5055063;28;20420;-80
2023/10/07 10:29:25;;;;;;;11.63;7.13;;;;;;;;;;5055344;28;20483;-80
2023/10/07 10:31:58;;;;;;;17.03;8.13;;;;;;;;;;5054678;28;20973;-80
2023/10/07 10:34:26;;;;;;;22.33;8.10;;;;;;;;;;5055369;28;20474;-80
2023/10/07 10:36:55;;;;;;;17.13;7.23;;;;;;;;;;5054957;28;20987;-80
2023/10/07 10:39:25;;;;;;;12.83;6.73;;;;;;;;;;5054696;28;20820;-81
2023/10/07 10:41:52;;;;;;;13.17;6.47;;;;;;;;;;5053202;28;20448;-81
2023/10/07 10:44:20;;;;;;;18.07;5.60;;;;;;;;;;5055008;28;20456;-80
2023/10/07 10:46:47;;;;;;;12.20;5.20;;;;;;;;;;5054385;28;20442;-80
2023/10/07 10:49:15;;;;;;;9.90;5.33;;;;;;;;;;5053321;28;20478;-80
2023/10/07 10:51:46;;;;;;;14.20;5.10;;;;;;;;;;5054574;28;20475;-81
2023/10/07 10:54:13;;;;;;;13.47;5.87;;;;;;;;;;5055028;28;20451;-81
2023/10/07 10:56:45;;;;;;;14.90;5.57;;;;;;;;;;5054839;28;20432;-80
2023/10/07 10:59:14;;;;;;;10.20;5.07;;;;;;;;;;5054721;28;20521;-82
2023/10/07 11:01:44;;;;;;;11.87;6.07;;;;;;;;;;5054079;28;20956;-81
2023/10/07 11:04:12;;;;;;;11.37;6.03;;;;;;;;;;5054443;28;21048;-82
2023/10/07 11:06:38;;;;;;;17.20;5.10;;;;;;;;;;5054509;28;20476;-81
2023/10/07 11:09:09;;;;;;;12.60;6.53;;;;;;;;;;5052476;28;21028;-81
2023/10/07 11:11:35;;;;;;;8.30;4.30;;;;;;;;;;5054053;28;20440;-81
2023/10/07 11:14:06;;;;;;;20.50;5.60;;;;;;;;;;5053596;28;20475;-81
2023/10/07 11:16:43;;;;;;;15.97;5.33;;;;;;;;;;5053386;28;20416;-81
2023/10/07 11:19:11;;;;;;;16.67;7.60;;;;;;;;;;5073104;28;20443;-81
2023/10/07 11:21:41;;;;;;;15.17;5.50;;;;;;;;;;5073931;28;20454;-82
2023/10/07 11:24:09;;;;;;;19.60;6.47;;;;;;;;;;5069711;28;20503;-81
2023/10/07 11:26:36;;;;;;;14.20;6.23;;;;;;;;;;5074315;28;20858;-81
2023/10/07 11:29:11;;;;;;;11.33;5.80;;;;;;;;;;5054164;28;20487;-81
2023/10/07 11:31:38;;;;;;;16.03;6.40;;;;;;;;;;5054221;28;20905;-81
2023/10/07 11:34:05;;;;;;;16.43;5.90;;;;;;;;;;5053051;28;20541;-81
2023/10/07 11:36:43;;;;;;;10.33;5.20;;;;;;;;;;5053964;28;20948;-81
2023/10/07 11:39:13;;;;;;;12.17;5.30;;;;;;;;;;5052419;28;20460;-80
2023/10/07 11:41:40;;;;;;;16.53;6.10;;;;;;;;;;5054181;28;20959;-82
2023/10/07 11:44:09;;;;;;;18.57;5.57;;;;;;;;;;5054302;28;20472;-82
2023/10/07 11:46:36;;;;;;;9.90;5.17;;;;;;;;;;5052905;28;20444;-81
2023/10/07 11:49:02;;;;;;;16.60;5.80;;;;;;;;;;5053222;28;20476;-81
2023/10/07 11:51:29;;;;;;;11.20;5.83;;;;;;;;;;5052822;28;20455;-81
2023/10/07 11:53:55;;;;;;;18.97;5.70;;;;;;;;;;5052952;28;20475;-81
2023/10/07 11:56:23;;;;;;;11.83;4.97;;;;;;;;;;5053861;28;20436;-81
2023/10/07 11:58:50;;;;;;;19.93;5.50;;;;;;;;;;5052667;28;20464;-81
2023/10/07 12:01:20;;;;;;;10.70;5.50;;;;;;;;;;5053571;28;20436;-80
2023/10/07 12:03:48;;;;;;;16.73;6.13;;;;;;;;;;5053775;28;20472;-79
2023/10/07 12:06:15;;;;;;;10.93;5.20;;;;;;;;;;5036825;28;20451;-82
2023/10/07 12:08:42;;;;;;;17.87;6.10;;;;;;;;;;5051835;28;20538;-79
2023/10/07 12:11:11;;;;;;;14.43;5.90;;;;;;;;;;5054027;28;20486;-79
2023/10/07 12:13:41;;;;;;;15.50;6.53;;;;;;;;;;5052204;28;20471;-80
2023/10/07 12:16:09;;;;;;;19.27;6.43;;;;;;;;;;5054246;28;20428;-79
2023/10/07 12:18:37;;;;;;;19.77;6.40;;;;;;;;;;5054323;28;20530;-80
2023/10/07 12:21:11;;;;;;;17.80;5.67;;;;;;;;;;5055002;28;20431;-80
2023/10/07 12:23:38;;;;;;;12.70;5.53;;;;;;;;;;5054268;28;21008;-80
2023/10/07 12:26:11;;;;;;;14.60;5.30;;;;;;;;;;5054359;28;20440;-80
2023/10/07 12:28:39;;;;;;;23.00;7.77;;;;;;;;;;5053803;28;20483;-79
2023/10/07 12:31:11;;;;;;;11.50;5.80;;;;;;;;;;5054945;28;20484;-81
2023/10/07 12:33:39;;;;;;;14.80;7.43;;;;;;;;;;5053665;28;20467;-80
2023/10/07 12:36:12;;;;;;;15.67;6.23;;;;;;;;;;5054183;28;20536;-81
2023/10/07 12:38:39;;;;;;;13.70;6.00;;;;;;;;;;5053336;28;20550;-81
2023/10/07 12:41:06;;;;;;;15.40;6.50;;;;;;;;;;5052124;28;20444;-80
2023/10/07 12:43:33;;;;;;;16.77;5.93;;;;;;;;;;5052016;28;20475;-81
2023/10/07 12:46:01;;;;;;;17.57;5.67;;;;;;;;;;5053914;28;20888;-82
2023/10/07 12:48:28;;;;;;;19.27;6.00;;;;;;;;;;5053377;28;20463;-82
2023/10/07 12:50:54;;;;;;;18.57;6.90;;;;;;;;;;5053597;28;21001;-80
2023/10/07 12:53:23;;;;;;;10.50;5.47;;;;;;;;;;5056090;28;20842;-80
2023/10/07 12:55:50;;;;;;;23.37;6.87;;;;;;;;;;5058886;28;20450;-79
2023/10/07 12:58:17;;;;;;;17.13;6.77;;;;;;;;;;5052719;28;20549;-81
2023/10/07 13:00:43;;;;;;;14.03;6.47;;;;;;;;;;5054433;28;20490;-80
2023/10/07 13:03:12;;;;;;;12.67;6.00;;;;;;;;;;5053560;28;20464;-81
2023/10/07 13:05:39;;;;;;;15.10;6.87;;;;;;;;;;5056921;28;20956;-83
2023/10/07 13:08:11;;;;;;;19.20;7.83;;;;;;;;;;5055395;28;21012;-80
2023/10/07 13:10:38;;;;;;;15.33;6.20;;;;;;;;;;5057543;28;20500;-81
2023/10/07 13:13:05;;;;;;;25.10;7.50;;;;;;;;;;5056322;28;20842;-80
2023/10/07 13:15:33;;;;;;;10.60;6.30;;;;;;;;;;5056784;28;20444;-80
2023/10/07 13:18:01;;;;;;;14.93;7.00;;;;;;;;;;5054838;28;20463;-79
2023/10/07 13:20:28;;;;;;;16.90;6.80;;;;;;;;;;5057508;28;20432;-79
2023/10/07 13:22:57;;;;;;;17.23;6.63;;;;;;;;;;5056920;28;20468;-81
2023/10/07 13:25:26;;;;;;;16.33;6.00;;;;;;;;;;5057063;28;20468;-79
2023/10/07 13:27:55;;;;;;;16.97;6.47;;;;;;;;;;5056918;28;20468;-82
2023/10/07 13:30:24;;;;;;;18.30;6.23;;;;;;;;;;5055013;28;20475;-80
2023/10/07 13:32:53;;;;;;;19.20;7.13;;;;;;;;;;5056782;28;20548;-79
2023/10/07 13:35:20;;;;;;;11.27;6.00;;;;;;;;;;5055912;28;21101;-80
2023/10/07 13:37:50;;;;;;;24.80;6.33;;;;;;;;;;5056651;28;20456;-81
2023/10/07 13:40:18;;;;;;;17.53;7.37;;;;;;;;;;5056528;28;20505;-82
2023/10/07 13:42:47;;;;;;;16.83;7.37;;;;;;;;;;5054865;28;20537;-81
2023/10/07 13:45:14;;;;;;;15.00;6.40;;;;;;;;;;5056451;28;20981;-83
2023/10/07 13:47:40;;;;;;;12.07;5.83;;;;;;;;;;5055640;28;20464;-82
2023/10/07 13:50:13;;;;;;;11.87;6.80;;;;;;;;;;5055251;28;20480;-81
2023/10/07 13:52:49;;;;;;;13.73;6.83;;;;;;;;;;5056161;28;20903;-81
2023/10/07 13:55:22;;;;;;;10.13;6.40;;;;;;;;;;5056398;28;20470;-80
2023/10/07 13:57:53;;;;;;;11.90;6.13;;;;;;;;;;5055252;28;20879;-81
2023/10/07 14:00:28;;;;;;;12.17;7.00;;;;;;;;;;5054741;28;20542;-81
2023/10/07 14:02:56;;;;;;;20.47;7.60;;;;;;;;;;5055466;28;20554;-81
2023/10/07 14:05:24;;;;;;;18.10;8.20;;;;;;;;;;5055725;28;20985;-81
2023/10/07 14:07:50;;;;;;;14.03;7.00;;;;;;;;;;5055464;28;20467;-80
2023/10/07 14:10:21;;;;;;;15.60;6.10;;;;;;;;;;5056270;28;20480;-81
2023/10/07 14:12:48;;;;;;;21.53;7.43;;;;;;;;;;5055438;28;20482;-81
2023/10/07 14:15:15;;;;;;;14.10;7.10;;;;;;;;;;5056085;28;20456;-80
2023/10/07 14:17:41;;;;;;;20.33;6.77;;;;;;;;;;5055784;28;20463;-80
2023/10/07 14:20:13;;;;;;;10.97;6.47;;;;;;;;;;5054541;28;20510;-80
2023/10/07 14:22:41;;;;;;;16.93;6.50;;;;;;;;;;5055424;28;20538;-81
2023/10/07 14:25:08;;;;;;;21.53;8.47;;;;;;;;;;5055528;28;20992;-81
2023/10/07 14:27:37;;;;;;;20.00;6.90;;;;;;;;;;5055870;28;20476;-80
2023/10/07 14:30:04;;;;;;;23.80;6.90;;;;;;;;;;5055040;28;20484;-81
2023/10/07 14:32:30;;;;;;;12.00;6.33;;;;;;;;;;5055210;28;20487;-80
2023/10/07 14:34:57;;;;;;;15.43;7.20;;;;;;;;;;5055528;28;20467;-81
2023/10/07 14:37:24;;;;;;;24.80;7.70;;;;;;;;;;5055221;28;20499;-82
2023/10/07 14:39:51;;;;;;;12.97;6.23;;;;;;;;;;5055255;28;20793;-80
2023/10/07 14:42:19;;;;;;;18.17;7.40;;;;;;;;;;5053923;28;20472;-82
2023/10/07 14:44:47;;;;;;;21.87;8.20;;;;;;;;;;5054070;28;20517;-81
2023/10/07 14:47:14;;;;;;;15.57;7.53;;;;;;;;;;5054430;28;20997;-81
2023/10/07 14:49:40;;;;;;;16.83;7.07;;;;;;;;;;5055090;28;20454;-81
2023/10/07 14:52:07;;;;;;;12.20;6.67;;;;;;;;;;5053381;28;20475;-80
2023/10/07 14:54:34;;;;;;;17.03;6.90;;;;;;;;;;5053639;28;20464;-81